Time;durP1;ratioP1;P1;durP2;ratioP2;P2;SDS_P1;SDS_P2;PMS_P1;PMS_P2;Temp;Humidity;BMP_temperature;BMP_pressure;BME280_temperature;BME280_humidity;BME280_pressure;Samples;Min_cycle;Max_cycle;Signal;HPM_P1;HPM_P2
2023/08/12 00:01:52;;;;;;;2.95;1.63;;;;;;;19.94;100.00;96638.41;5041600;28;20201;-73
2023/08/12 00:04:19;;;;;;;2.08;1.30;;;;;;;19.69;100.00;96643.84;5041108;28;20237;-73
2023/08/12 00:06:46;;;;;;;2.88;1.63;;;;;;;19.76;100.00;96643.75;5040907;28;20200;-73
2023/08/12 00:09:14;;;;;;;2.03;1.42;;;;;;;19.66;100.00;96633.56;5041158;28;20235;-73
2023/08/12 00:11:41;;;;;;;3.33;1.90;;;;;;;19.66;100.00;96633.56;5040911;28;20197;-73
2023/08/12 00:14:07;;;;;;;5.18;1.50;;;;;;;19.62;100.00;96631.56;5040422;28;20788;-73
2023/08/12 00:16:34;;;;;;;2.50;1.50;;;;;;;19.39;100.00;96630.59;5040969;28;20705;-73
2023/08/12 00:19:02;;;;;;;4.15;1.50;;;;;;;19.52;100.00;96630.47;5040117;28;20622;-73
2023/08/12 00:21:28;;;;;;;3.55;1.65;;;;;;;19.27;100.00;96622.50;5040314;28;20201;-73
2023/08/12 00:23:55;;;;;;;7.68;1.70;;;;;;;19.26;100.00;96618.19;5040067;28;20229;-73
2023/08/12 00:26:21;;;;;;;3.95;1.75;;;;;;;19.14;100.00;96613.78;5040891;28;20204;-73
2023/08/12 00:28:50;;;;;;;2.92;1.17;;;;;;;19.26;100.00;96614.72;5039928;28;20201;-73
2023/08/12 00:31:16;;;;;;;2.22;1.38;;;;;;;19.26;100.00;96614.72;5040167;28;20595;-73
2023/08/12 00:33:43;;;;;;;5.80;1.70;;;;;;;19.29;100.00;96616.94;5040569;28;20766;-73
2023/08/12 00:36:10;;;;;;;2.15;1.35;;;;;;;19.49;100.00;96610.34;5040815;28;20232;-73
2023/08/12 00:38:37;;;;;;;2.53;1.40;;;;;;;19.36;100.00;96612.31;5040989;28;20296;-73
2023/08/12 00:41:04;;;;;;;4.18;1.83;;;;;;;19.33;100.00;96605.56;5041167;28;20205;-73
2023/08/12 00:43:31;;;;;;;3.58;1.63;;;;;;;19.17;100.00;96605.31;5040385;28;20217;-73
2023/08/12 00:45:58;;;;;;;4.97;1.60;;;;;;;19.27;100.00;96613.66;5039646;28;20202;-72
2023/08/12 00:48:25;;;;;;;3.10;1.88;;;;;;;19.28;100.00;96600.06;5038873;28;20208;-72
2023/08/12 00:50:52;;;;;;;6.05;1.83;;;;;;;19.33;100.00;96599.41;5039564;28;20861;-73
2023/08/12 00:53:21;;;;;;;5.78;1.90;;;;;;;19.41;100.00;96604.47;5039888;28;20232;-73
2023/08/12 00:55:47;;;;;;;2.03;1.38;;;;;;;19.21;100.00;96601.19;5040239;28;20225;-73
2023/08/12 00:58:14;;;;;;;2.17;1.20;;;;;;;19.18;100.00;96599.78;5039392;28;20209;-73
2023/08/12 01:00:41;;;;;;;3.67;1.88;;;;;;;19.17;100.00;96599.97;5039550;28;20197;-73
2023/08/12 01:03:08;;;;;;;3.22;1.73;;;;;;;19.18;100.00;96591.75;5040090;28;20332;-73
2023/08/12 01:05:35;;;;;;;3.25;1.70;;;;;;;19.08;100.00;96591.44;5040463;28;20564;-73
2023/08/12 01:08:01;;;;;;;4.22;1.30;;;;;;;19.05;100.00;96588.38;5038860;28;20201;-73
2023/08/12 01:10:34;;;;;;;1.85;1.45;;;;;;;19.32;100.00;96582.56;5037949;28;20194;-73
2023/08/12 01:13:10;;;;;;;3.17;1.40;;;;;;;19.38;100.00;96575.50;5039622;28;20225;-73
2023/08/12 01:15:39;;;;;;;2.97;1.48;;;;;;;19.27;100.00;96581.59;5039787;28;20570;-73
2023/08/12 01:18:07;;;;;;;2.83;1.50;;;;;;;18.92;100.00;96583.16;5038474;28;20212;-73
2023/08/12 01:20:34;;;;;;;2.33;1.50;;;;;;;18.83;100.00;96575.66;5039440;28;20288;-72
2023/08/12 01:23:10;;;;;;;3.58;1.67;;;;;;;18.99;100.00;96570.53;5039049;28;20224;-73
2023/08/12 01:25:37;;;;;;;4.15;1.73;;;;;;;18.78;100.00;96567.47;5039020;28;20192;-72
2023/08/12 01:28:04;;;;;;;4.13;1.88;;;;;;;18.82;100.00;96568.66;5038631;28;20205;-73
2023/08/12 01:30:31;;;;;;;4.13;1.77;;;;;;;18.80;100.00;96563.56;5039640;28;20220;-72
2023/08/12 01:33:04;;;;;;;2.17;1.60;;;;;;;19.10;100.00;96562.63;5039196;28;20681;-73
2023/08/12 01:35:36;;;;;;;2.85;1.45;;;;;;;19.09;100.00;96560.19;5039177;28;20913;-73
2023/08/12 01:38:05;;;;;;;2.45;1.50;;;;;;;19.05;100.00;96567.84;5037838;28;20224;-73
2023/08/12 01:40:34;;;;;;;4.00;1.42;;;;;;;19.10;100.00;96559.16;5039493;28;20211;-73
2023/08/12 01:43:03;;;;;;;3.17;1.85;;;;;;;18.99;100.00;96563.34;5038762;28;20225;-73
2023/08/12 01:45:31;;;;;;;1.38;1.00;;;;;;;19.12;100.00;96565.13;5039865;28;20228;-73
2023/08/12 01:47:58;;;;;;;3.00;1.85;;;;;;;18.96;100.00;96554.97;5038838;28;20288;-73
2023/08/12 01:50:25;;;;;;;1.92;1.50;;;;;;;18.96;100.00;96563.81;5038904;28;20666;-73
2023/08/12 01:52:52;;;;;;;2.25;1.60;;;;;;;18.86;100.00;96559.19;5039021;28;20228;-73
2023/08/12 01:55:18;;;;;;;3.38;2.00;;;;;;;18.85;100.00;96558.38;5040094;28;20207;-73
2023/08/12 01:57:46;;;;;;;2.25;1.45;;;;;;;18.81;100.00;96562.50;5037898;28;20201;-73
2023/08/12 02:00:13;;;;;;;2.30;1.48;;;;;;;18.70;100.00;96560.56;5038757;28;20217;-73
2023/08/12 02:02:40;;;;;;;6.25;1.75;;;;;;;18.78;100.00;96570.97;5038705;28;20228;-73
2023/08/12 02:05:07;;;;;;;3.25;1.73;;;;;;;18.71;100.00;96559.53;5038675;28;20201;-73
2023/08/12 02:07:33;;;;;;;2.67;1.48;;;;;;;18.62;100.00;96563.50;5037580;28;20203;-73
2023/08/12 02:10:00;;;;;;;3.65;1.90;;;;;;;18.65;100.00;96557.72;5038744;28;20594;-73
2023/08/12 02:12:26;;;;;;;2.05;1.50;;;;;;;18.71;100.00;96562.19;5038424;28;20218;-73
2023/08/12 02:14:54;;;;;;;2.75;1.80;;;;;;;18.88;100.00;96557.94;5037420;28;20215;-73
2023/08/12 02:17:21;;;;;;;2.08;1.48;;;;;;;18.77;100.00;96563.97;5037912;28;20216;-73
2023/08/12 02:19:47;;;;;;;2.25;1.50;;;;;;;18.81;100.00;96557.16;5037530;28;20201;-73
2023/08/12 02:24:45;;;;;;;3.13;1.67;;;;;;;18.99;100.00;96550.00;5065392;28;20557;-73
2023/08/12 02:27:11;;;;;;;3.00;1.60;;;;;;;18.79;100.00;96558.41;5053216;28;20204;-73
2023/08/12 02:29:38;;;;;;;2.20;1.50;;;;;;;18.74;100.00;96552.94;5050371;28;20650;-73
2023/08/12 02:32:05;;;;;;;2.58;1.88;;;;;;;18.74;100.00;96556.41;5053807;28;20207;-73
2023/08/12 02:34:32;;;;;;;3.13;1.67;;;;;;;18.66;100.00;96543.34;5054377;28;20193;-73
2023/08/12 02:36:58;;;;;;;3.00;1.67;;;;;;;18.58;100.00;96548.97;5053192;28;20207;-73
2023/08/12 02:39:25;;;;;;;6.72;1.67;;;;;;;18.52;100.00;96541.84;5053970;28;20207;-73
2023/08/12 02:41:52;;;;;;;2.30;1.70;;;;;;;18.70;100.00;96543.72;5054791;28;20572;-73
2023/08/12 02:44:20;;;;;;;2.58;1.30;;;;;;;18.56;100.00;96540.34;5053249;28;20220;-73
2023/08/12 02:46:46;;;;;;;2.40;1.40;;;;;;;18.46;100.00;96532.03;5054105;28;21126;-73
2023/08/12 02:49:13;;;;;;;3.63;1.80;;;;;;;18.52;100.00;96536.50;5052992;28;20205;-73
2023/08/12 02:51:39;;;;;;;2.95;1.60;;;;;;;18.43;100.00;96540.47;5054037;28;20204;-73
2023/08/12 02:54:06;;;;;;;3.13;1.35;;;;;;;18.25;100.00;96541.44;5053018;28;20612;-73
2023/08/12 02:56:33;;;;;;;2.83;1.50;;;;;;;18.16;100.00;96540.03;5054343;28;20215;-73
2023/08/12 02:59:01;;;;;;;2.55;1.83;;;;;;;18.13;100.00;96540.47;5052158;28;20197;-73
2023/08/12 03:01:27;;;;;;;2.70;1.60;;;;;;;18.04;100.00;96545.25;5053474;28;20205;-73
2023/08/12 03:03:54;;;;;;;2.72;1.95;;;;;;;17.98;100.00;96537.28;5053751;28;20231;-74
2023/08/12 03:06:21;;;;;;;7.00;1.88;;;;;;;18.18;100.00;96536.16;5052072;28;20196;-74
2023/08/12 03:08:47;;;;;;;2.75;1.55;;;;;;;18.15;100.00;96531.22;5050464;28;20201;-73
2023/08/12 03:11:15;;;;;;;4.50;2.22;;;;;;;18.27;100.00;96537.50;5052322;28;20201;-74
2023/08/12 03:13:42;;;;;;;2.53;1.42;;;;;;;18.15;100.00;96533.06;5052413;28;20225;-73
2023/08/12 03:16:14;;;;;;;4.55;2.00;;;;;;;18.34;100.00;96533.78;5051666;28;21173;-74
2023/08/12 03:18:40;;;;;;;3.38;2.03;;;;;;;18.13;100.00;96538.63;5051383;28;20270;-74
2023/08/12 03:21:07;;;;;;;2.92;1.73;;;;;;;18.15;100.00;96525.06;5051377;28;20209;-73
2023/08/12 03:23:34;;;;;;;4.25;2.40;;;;;;;18.07;100.00;96525.31;5051653;28;21165;-72
2023/08/12 03:26:01;;;;;;;3.75;1.88;;;;;;;18.04;100.00;96525.78;5051646;28;20209;-73
2023/08/12 03:28:27;;;;;;;3.55;1.98;;;;;;;18.07;100.00;96522.66;5051058;28;20203;-73
2023/08/12 03:30:54;;;;;;;2.95;1.77;;;;;;;18.09;100.00;96524.09;5051363;28;21007;-73
2023/08/12 03:33:22;;;;;;;2.67;1.77;;;;;;;18.16;100.00;96529.38;5051545;28;20225;-74
2023/08/12 03:35:49;;;;;;;4.32;1.90;;;;;;;18.00;100.00;96540.56;5039850;28;20209;-74
2023/08/12 03:38:16;;;;;;;4.68;1.70;;;;;;;17.91;100.00;96536.53;5037654;28;20220;-73
2023/08/12 03:40:43;;;;;;;2.95;1.63;;;;;;;17.94;100.00;96530.75;5037652;28;20209;-73
2023/08/12 03:43:09;;;;;;;2.92;1.92;;;;;;;18.01;100.00;96528.84;5038456;28;20258;-73
2023/08/12 03:45:40;;;;;;;3.60;2.30;;;;;;;18.04;100.00;96523.09;5038565;28;20423;-74
2023/08/12 03:48:07;;;;;;;4.30;2.28;;;;;;;17.88;100.00;96527.09;5037178;28;20216;-72
2023/08/12 03:50:36;;;;;;;3.95;2.13;;;;;;;18.05;100.00;96527.38;5037084;28;20209;-74
2023/08/12 03:53:02;;;;;;;3.22;1.50;;;;;;;17.80;100.00;96529.19;5038117;28;20236;-74
2023/08/12 03:55:31;;;;;;;2.55;1.70;;;;;;;18.10;100.00;96525.72;5037504;28;20205;-74
2023/08/12 03:57:58;;;;;;;4.90;1.88;;;;;;;17.76;100.00;96522.66;5037739;28;20201;-74
2023/08/12 04:00:24;;;;;;;5.28;2.42;;;;;;;17.85;100.00;96532.84;5037967;28;20239;-73
2023/08/12 04:02:51;;;;;;;4.07;1.90;;;;;;;17.82;100.00;96533.28;5037342;28;20248;-73
2023/08/12 04:05:17;;;;;;;3.10;1.80;;;;;;;17.71;100.00;96525.94;5038515;28;21117;-73
2023/08/12 04:07:45;;;;;;;3.13;2.03;;;;;;;17.92;100.00;96536.31;5037571;28;20201;-72
2023/08/12 04:10:12;;;;;;;2.58;1.90;;;;;;;17.79;100.00;96538.22;5037686;28;20201;-73
2023/08/12 04:12:38;;;;;;;2.92;1.85;;;;;;;17.77;100.00;96524.31;5037545;28;20233;-74
2023/08/12 04:15:06;;;;;;;7.43;1.80;;;;;;;17.84;100.00;96531.19;5038757;28;20216;-72
2023/08/12 04:17:33;;;;;;;3.42;1.90;;;;;;;17.81;100.00;96530.84;5036909;28;20270;-72
2023/08/12 04:19:59;;;;;;;3.88;1.88;;;;;;;17.75;100.00;96531.69;5038124;28;20223;-74
2023/08/12 04:22:26;;;;;;;4.05;2.33;;;;;;;17.84;100.00;96527.72;5039265;28;20286;-72
2023/08/12 04:24:54;;;;;;;5.65;1.85;;;;;;;18.00;100.00;96527.25;5039008;28;20308;-73
2023/08/12 04:27:20;;;;;;;5.43;2.28;;;;;;;17.91;100.00;96533.84;5036431;28;20216;-74
2023/08/12 04:29:48;;;;;;;3.47;1.90;;;;;;;18.07;100.00;96536.81;5038206;28;20212;-74
2023/08/12 04:32:14;;;;;;;3.75;1.90;;;;;;;18.01;100.00;96531.50;5036846;28;20301;-73
2023/08/12 04:34:40;;;;;;;2.42;1.80;;;;;;;17.98;100.00;96527.44;5037841;28;20198;-74
2023/08/12 04:37:07;;;;;;;4.60;2.45;;;;;;;18.03;100.00;96519.59;5036139;28;20220;-74
2023/08/12 04:39:33;;;;;;;3.80;2.08;;;;;;;18.06;100.00;96513.84;5037685;28;20208;-73
2023/08/12 04:42:01;;;;;;;3.05;1.92;;;;;;;18.19;100.00;96516.44;5036662;28;20205;-74
2023/08/12 04:44:28;;;;;;;12.95;2.33;;;;;;;18.06;100.00;96519.19;5037829;28;20229;-72
2023/08/12 04:46:54;;;;;;;4.40;2.17;;;;;;;18.14;100.00;96513.59;5035512;28;20656;-73
2023/08/12 04:49:23;;;;;;;5.22;2.42;;;;;;;18.16;100.00;96518.69;5037387;28;20204;-72
2023/08/12 04:51:52;;;;;;;7.10;2.10;;;;;;;18.41;100.00;96515.84;5036029;28;20729;-72
2023/08/12 04:54:18;;;;;;;3.63;2.03;;;;;;;18.25;100.00;96515.56;5036963;28;20215;-71
2023/08/12 04:56:45;;;;;;;6.13;2.17;;;;;;;18.40;100.00;96516.88;5036999;28;20215;-72
2023/08/12 04:59:13;;;;;;;4.90;1.70;;;;;;;18.51;100.00;96512.69;5036174;28;20212;-72
2023/08/12 05:01:39;;;;;;;3.45;1.65;;;;;;;18.46;100.00;96518.69;5037269;28;20339;-73
2023/08/12 05:04:06;;;;;;;3.25;1.58;;;;;;;18.56;100.00;96521.66;5036837;28;20228;-72
2023/08/12 05:06:33;;;;;;;1.90;1.52;;;;;;;18.52;100.00;96519.63;5036952;28;20205;-72
2023/08/12 05:08:59;;;;;;;2.58;1.75;;;;;;;18.56;100.00;96516.34;5035694;28;20227;-72
2023/08/12 05:11:26;;;;;;;3.90;1.90;;;;;;;18.68;100.00;96521.78;5037085;28;20197;-71
2023/08/12 05:13:52;;;;;;;2.78;1.65;;;;;;;18.80;100.00;96525.34;5035777;28;20672;-72
2023/08/12 05:16:20;;;;;;;2.50;1.55;;;;;;;19.06;100.00;96515.25;5036598;28;20201;-74
2023/08/12 05:18:46;;;;;;;3.55;2.10;;;;;;;19.08;100.00;96522.00;5035578;28;20693;-74
2023/08/12 05:21:13;;;;;;;3.78;1.98;;;;;;;19.21;100.00;96523.72;5036509;28;20209;-75
2023/08/12 05:23:39;;;;;;;3.47;1.83;;;;;;;19.35;100.00;96520.66;5035495;28;20229;-74
2023/08/12 05:26:06;;;;;;;4.18;2.30;;;;;;;19.48;100.00;96522.34;5037074;28;20204;-74
2023/08/12 05:28:32;;;;;;;4.18;2.70;;;;;;;19.61;100.00;96514.97;5036088;28;20217;-75
2023/08/12 05:30:59;;;;;;;3.65;2.13;;;;;;;19.84;100.00;96515.88;5036495;28;20201;-74
2023/08/12 05:33:27;;;;;;;5.40;2.58;;;;;;;20.11;100.00;96513.66;5036803;28;20740;-72
2023/08/12 05:35:53;;;;;;;4.35;2.35;;;;;;;20.11;100.00;96510.97;5037667;28;20205;-75
2023/08/12 05:38:20;;;;;;;4.70;2.38;;;;;;;20.27;100.00;96508.47;5034889;28;20206;-72
2023/08/12 05:40:47;;;;;;;5.53;2.42;;;;;;;20.39;100.00;96503.94;5036045;28;21001;-73
2023/08/12 05:43:13;;;;;;;5.18;2.70;;;;;;;20.45;100.00;96497.66;5036130;28;20287;-73
2023/08/12 05:45:40;;;;;;;5.55;2.80;;;;;;;20.41;100.00;96501.84;5036022;28;20590;-72
2023/08/12 05:48:07;;;;;;;6.72;3.15;;;;;;;20.55;100.00;96505.94;5035444;28;20220;-72
2023/08/12 05:50:34;;;;;;;6.80;3.00;;;;;;;20.60;100.00;96508.75;5035584;28;20638;-74
2023/08/12 05:53:01;;;;;;;7.38;3.05;;;;;;;20.38;100.00;96513.84;5035720;28;20225;-72
2023/08/12 05:55:27;;;;;;;4.43;2.70;;;;;;;20.57;100.00;96527.94;5035078;28;20200;-74
2023/08/12 05:57:54;;;;;;;7.75;3.35;;;;;;;20.68;100.00;96532.50;5035826;28;20320;-75
2023/08/12 06:00:20;;;;;;;7.10;3.15;;;;;;;20.78;100.00;96522.06;5035432;28;21033;-71
2023/08/12 06:02:47;;;;;;;4.22;2.45;;;;;;;20.82;100.00;96520.53;5036368;28;20221;-73
2023/08/12 06:05:13;;;;;;;6.88;3.35;;;;;;;20.83;100.00;96524.84;5035512;28;20228;-74
2023/08/12 06:07:41;;;;;;;4.65;2.92;;;;;;;20.80;100.00;96533.34;5035605;28;20205;-75
2023/08/12 06:10:08;;;;;;;6.93;2.88;;;;;;;20.80;100.00;96528.81;5034609;28;20227;-74
2023/08/12 06:12:35;;;;;;;5.88;2.55;;;;;;;20.93;100.00;96528.56;5033799;28;20271;-75
2023/08/12 06:15:02;;;;;;;4.22;2.30;;;;;;;21.08;100.00;96518.22;5033864;28;20553;-75
2023/08/12 06:17:28;;;;;;;5.55;2.92;;;;;;;21.08;100.00;96513.66;5034106;28;20209;-72
2023/08/12 06:19:55;;;;;;;5.65;2.75;;;;;;;21.10;100.00;96506.16;5032181;28;20320;-71
2023/08/12 06:22:21;;;;;;;5.07;2.85;;;;;;;21.18;100.00;96513.88;5033567;28;20221;-72
2023/08/12 06:24:49;;;;;;;6.93;2.90;;;;;;;21.36;100.00;96511.03;5033598;28;20229;-71
2023/08/12 06:27:16;;;;;;;4.68;2.65;;;;;;;21.31;100.00;96516.28;5032257;28;20213;-72
2023/08/12 06:29:42;;;;;;;5.63;2.17;;;;;;;21.25;100.00;96527.94;5034063;28;20209;-72
2023/08/12 06:32:12;;;;;;;4.65;2.63;;;;;;;21.35;100.00;96525.50;5033850;28;20210;-71
2023/08/12 06:34:39;;;;;;;4.07;2.50;;;;;;;21.43;100.00;96525.94;5034405;28;20231;-71
2023/08/12 06:37:05;;;;;;;6.45;3.10;;;;;;;21.48;100.00;96530.59;5032043;28;20208;-72
2023/08/12 06:39:32;;;;;;;9.50;3.05;;;;;;;21.45;100.00;96526.50;5034315;28;20665;-71
2023/08/12 06:42:00;;;;;;;8.05;2.78;;;;;;;21.80;100.00;96519.19;5034154;28;20201;-72
2023/08/12 06:44:26;;;;;;;3.53;2.33;;;;;;;21.72;100.00;96526.81;5033803;28;20225;-72
2023/08/12 06:46:53;;;;;;;3.83;2.58;;;;;;;21.55;100.00;96526.75;5033367;28;20589;-71
2023/08/12 06:49:19;;;;;;;4.53;2.85;;;;;;;21.85;100.00;96518.47;5035219;28;20252;-72
2023/08/12 06:51:46;;;;;;;5.22;2.67;;;;;;;21.87;100.00;96519.03;5034587;28;20201;-72
2023/08/12 06:54:12;;;;;;;4.63;2.70;;;;;;;21.66;100.00;96517.84;5036830;28;20217;-71
2023/08/12 06:56:39;;;;;;;4.85;2.63;;;;;;;21.55;100.00;96518.72;5035258;28;20212;-73
2023/08/12 06:59:06;;;;;;;3.88;2.25;;;;;;;21.77;100.00;96508.94;5035327;28;20216;-71
2023/08/12 07:01:33;;;;;;;4.93;2.33;;;;;;;21.65;100.00;96516.22;5034159;28;20213;-71
2023/08/12 07:04:00;;;;;;;4.30;2.45;;;;;;;21.63;100.00;96510.28;5034295;28;20244;-71
2023/08/12 07:06:26;;;;;;;7.15;2.45;;;;;;;21.67;100.00;96508.75;5034989;28;20201;-73
2023/08/12 07:08:53;;;;;;;7.90;3.05;;;;;;;21.83;100.00;96513.38;5034257;28;20280;-72
2023/08/12 07:11:20;;;;;;;6.30;3.10;;;;;;;21.94;100.00;96509.78;5038458;28;20677;-72
2023/08/12 07:13:46;;;;;;;6.18;3.58;;;;;;;22.08;100.00;96511.13;5039341;28;20213;-71
2023/08/12 07:16:14;;;;;;;6.85;3.28;;;;;;;22.31;100.00;96514.56;5038205;28;20201;-71
2023/08/12 07:18:41;;;;;;;9.25;3.83;;;;;;;22.18;100.00;96516.69;5037911;28;20209;-72
2023/08/12 07:21:07;;;;;;;7.50;3.30;;;;;;;22.43;100.00;96517.97;5039295;28;20307;-72
2023/08/12 07:23:34;;;;;;;5.57;3.13;;;;;;;22.45;100.00;96520.41;5035917;28;20237;-72
2023/08/12 07:26:00;;;;;;;5.40;3.38;;;;;;;22.41;100.00;96520.06;5037264;28;20225;-72
2023/08/12 07:28:27;;;;;;;9.30;3.67;;;;;;;22.70;100.00;96508.19;5035632;28;20201;-72
2023/08/12 07:30:53;;;;;;;8.45;3.03;;;;;;;22.88;100.00;96516.00;5037395;28;20205;-72
2023/08/12 07:33:22;;;;;;;5.03;3.25;;;;;;;22.97;100.00;96512.63;5035614;28;20221;-73
2023/08/12 07:35:48;;;;;;;5.68;3.40;;;;;;;22.90;100.00;96519.28;5037365;28;20204;-72
2023/08/12 07:38:15;;;;;;;5.95;3.35;;;;;;;22.80;100.00;96516.44;5034883;28;20197;-73
2023/08/12 07:40:41;;;;;;;8.82;3.95;;;;;;;22.88;100.00;96513.31;5036814;28;20209;-72
2023/08/12 07:43:08;;;;;;;4.78;3.35;;;;;;;22.83;100.00;96516.72;5036786;28;20217;-72
2023/08/12 07:45:34;;;;;;;12.10;3.15;;;;;;;22.99;100.00;96515.13;5037423;28;20275;-72
2023/08/12 07:48:01;;;;;;;5.38;3.05;;;;;;;22.96;100.00;96526.31;5035997;28;20224;-72
2023/08/12 07:50:29;;;;;;;6.95;4.25;;;;;;;23.27;100.00;96513.09;5038726;28;20212;-71
2023/08/12 07:52:55;;;;;;;7.22;3.58;;;;;;;23.23;100.00;96513.84;5038040;28;20225;-72
2023/08/12 07:55:22;;;;;;;7.78;3.72;;;;;;;23.42;100.00;96519.50;5038598;28;20201;-71
2023/08/12 07:57:48;;;;;;;7.18;3.22;;;;;;;23.57;100.00;96525.03;5037641;28;20209;-72
2023/08/12 08:00:15;;;;;;;7.53;3.67;;;;;;;23.75;100.00;96519.41;5037314;28;20213;-73
2023/08/12 08:02:42;;;;;;;6.00;3.08;;;;;;;23.76;100.00;96521.00;5037458;28;20225;-72
2023/08/12 08:05:09;;;;;;;8.27;4.20;;;;;;;23.78;100.00;96509.97;5042662;28;20224;-71
2023/08/12 08:07:36;;;;;;;7.78;3.60;;;;;;;24.01;100.00;96508.66;5041608;28;20209;-72
2023/08/12 08:10:03;;;;;;;6.20;2.80;;;;;;;24.04;100.00;96512.72;5038624;28;20212;-72
2023/08/12 08:12:30;;;;;;;7.93;4.15;;;;;;;24.33;100.00;96511.41;5037311;28;20232;-72
2023/08/12 08:14:56;;;;;;;5.63;2.97;;;;;;;24.46;100.00;96517.19;5035979;28;20594;-72
2023/08/12 08:17:23;;;;;;;7.20;3.47;;;;;;;24.66;100.00;96512.78;5035645;28;20674;-72
2023/08/12 08:19:49;;;;;;;5.07;2.80;;;;;;;24.88;100.00;96518.88;5035684;28;20205;-72
2023/08/12 08:22:16;;;;;;;6.47;3.67;;;;;;;25.49;100.00;96515.50;5035741;28;20220;-72
2023/08/12 08:24:43;;;;;;;5.28;2.85;;;;;;;25.36;100.00;96510.59;5037669;28;20245;-72
2023/08/12 08:27:10;;;;;;;7.80;3.10;;;;;;;25.01;100.00;96513.03;5037610;28;20873;-72
2023/08/12 08:29:36;;;;;;;7.20;3.30;;;;;;;25.06;100.00;96510.41;5033019;28;20207;-72
2023/08/12 08:32:03;;;;;;;5.95;2.97;;;;;;;25.25;100.00;96501.63;5035872;28;20206;-73
2023/08/12 08:34:30;;;;;;;7.45;3.22;;;;;;;25.37;100.00;96501.44;5036861;28;20208;-72
2023/08/12 08:36:57;;;;;;;6.50;3.35;;;;;;;25.50;100.00;96500.94;5034606;28;20220;-72
2023/08/12 08:39:24;;;;;;;6.85;3.13;;;;;;;25.74;100.00;96494.88;5035550;28;20217;-72
2023/08/12 08:41:54;;;;;;;7.50;2.83;;;;;;;26.06;100.00;96493.59;5035457;28;20288;-72
2023/08/12 08:44:23;;;;;;;5.03;3.10;;;;;;;26.22;100.00;96489.88;5034165;28;20225;-72
2023/08/12 08:46:52;;;;;;;7.75;3.30;;;;;;;26.36;100.00;96482.06;5033869;28;20296;-72
2023/08/12 08:49:19;;;;;;;6.10;2.88;;;;;;;26.35;100.00;96483.97;5032887;28;20201;-72
2023/08/12 08:51:47;;;;;;;6.55;2.90;;;;;;;26.78;100.00;96499.63;5034828;28;20576;-73
2023/08/12 08:54:14;;;;;;;5.20;2.72;;;;;;;26.41;100.00;96487.47;5035628;28;20233;-73
2023/08/12 08:56:41;;;;;;;5.03;2.70;;;;;;;26.42;100.00;96500.72;5035596;28;20209;-72
2023/08/12 08:59:09;;;;;;;5.82;3.58;;;;;;;26.36;100.00;96496.38;5034758;28;20216;-72
2023/08/12 09:01:37;;;;;;;4.43;2.53;;;;;;;26.77;100.00;96493.44;5035326;28;20209;-73
2023/08/12 09:04:04;;;;;;;5.00;2.65;;;;;;;27.24;97.68;96494.75;5035612;28;21017;-72
2023/08/12 09:06:33;;;;;;;6.82;2.97;;;;;;;27.41;93.12;96495.22;5034253;28;20224;-72
2023/08/12 09:09:01;;;;;;;3.75;2.50;;;;;;;27.66;95.92;96497.88;5033948;28;20205;-73
2023/08/12 09:11:28;;;;;;;4.32;2.33;;;;;;;27.31;94.47;96497.97;5035922;28;20203;-73
2023/08/12 09:13:55;;;;;;;5.57;2.63;;;;;;;27.44;97.94;96504.69;5035679;28;20271;-73
2023/08/12 09:16:23;;;;;;;4.53;2.38;;;;;;;27.63;92.26;96498.44;5034927;28;20194;-73
2023/08/12 09:18:57;;;;;;;3.28;2.05;;;;;;;28.16;95.69;96503.09;5035681;28;20259;-73
2023/08/12 09:21:24;;;;;;;5.93;3.13;;;;;;;28.21;96.07;96503.03;5035234;28;20204;-72
2023/08/12 09:23:50;;;;;;;6.57;3.03;;;;;;;28.00;89.22;96498.78;5034523;28;20236;-72
2023/08/12 09:26:18;;;;;;;4.75;2.38;;;;;;;28.92;89.15;96503.09;5034982;28;20236;-72
2023/08/12 09:28:45;;;;;;;4.57;2.25;;;;;;;29.04;89.24;96508.94;5034561;28;21234;-72
2023/08/12 09:31:25;;;;;;;4.55;2.10;;;;;;;29.43;84.93;96510.47;5034737;28;20205;-72
2023/08/12 09:33:51;;;;;;;5.57;2.20;;;;;;;28.94;86.87;96514.44;5034918;28;20231;-72
2023/08/12 09:36:18;;;;;;;4.43;2.50;;;;;;;28.73;83.19;96515.72;5033083;28;20269;-72
2023/08/12 09:38:45;;;;;;;6.53;2.40;;;;;;;28.69;84.85;96514.66;5033545;28;20384;-72
2023/08/12 09:41:11;;;;;;;6.72;2.63;;;;;;;28.91;86.36;96514.19;5034271;28;20213;-72
2023/08/12 09:43:41;;;;;;;3.17;1.92;;;;;;;28.97;82.61;96511.16;5034909;28;20229;-72
2023/08/12 09:46:11;;;;;;;4.18;1.77;;;;;;;28.77;78.31;96505.94;5034180;28;20232;-72
2023/08/12 09:48:39;;;;;;;2.28;1.60;;;;;;;29.01;79.89;96507.59;5032131;28;20208;-72
2023/08/12 09:51:05;;;;;;;3.30;1.92;;;;;;;28.88;77.39;96502.00;5031435;28;20201;-72
2023/08/12 09:53:33;;;;;;;4.15;1.55;;;;;;;28.88;74.21;96496.59;5033341;28;20229;-73
2023/08/12 09:56:06;;;;;;;2.88;1.90;;;;;;;29.25;75.01;96505.75;5034191;28;20202;-73
2023/08/12 09:58:35;;;;;;;2.55;1.65;;;;;;;29.03;75.43;96494.56;5032950;28;20213;-72
2023/08/12 10:01:03;;;;;;;5.70;2.30;;;;;;;29.30;76.31;96488.59;5034166;28;20205;-72
2023/08/12 10:03:30;;;;;;;18.08;1.98;;;;;;;29.67;77.62;96486.81;5033757;28;20606;-73
2023/08/12 10:05:58;;;;;;;3.63;1.80;;;;;;;30.32;82.19;96486.78;5034554;28;20224;-74
2023/08/12 10:08:25;;;;;;;6.72;2.28;;;;;;;30.11;71.95;96482.75;5032522;28;20201;-72
2023/08/12 10:10:52;;;;;;;2.65;1.80;;;;;;;30.24;70.90;96482.84;5033546;28;20696;-72
2023/08/12 10:13:20;;;;;;;2.83;1.77;;;;;;;29.66;77.84;96488.72;5034118;28;20887;-72
2023/08/12 10:15:47;;;;;;;2.22;1.60;;;;;;;29.48;77.72;96490.59;5034257;28;20201;-72
2023/08/12 10:18:15;;;;;;;2.90;2.20;;;;;;;29.55;79.56;96486.44;5033005;28;20208;-73
2023/08/12 10:20:44;;;;;;;2.42;1.60;;;;;;;29.54;74.92;96503.03;5033226;28;20212;-72
2023/08/12 10:23:18;;;;;;;2.88;1.73;;;;;;;29.86;74.88;96504.84;5032770;28;20249;-73
2023/08/12 10:25:45;;;;;;;3.03;1.83;;;;;;;29.58;75.14;96499.41;5033842;28;20240;-72
2023/08/12 10:28:12;;;;;;;5.38;1.80;;;;;;;29.52;74.00;96497.88;5032789;28;20205;-72
2023/08/12 10:30:40;;;;;;;2.47;1.52;;;;;;;29.62;79.42;96493.13;5033801;28;20212;-72
2023/08/12 10:33:07;;;;;;;2.08;1.48;;;;;;;29.15;74.33;96496.88;5033429;28;20236;-72
2023/08/12 10:35:47;;;;;;;2.03;1.48;;;;;;;29.08;74.55;96496.41;5034080;28;20205;-72
2023/08/12 10:38:19;;;;;;;4.53;2.28;;;;;;;29.27;76.71;96497.31;5033356;28;20578;-75
2023/08/12 10:40:45;;;;;;;2.42;1.52;;;;;;;29.09;75.37;96489.91;5033640;28;20201;-76
2023/08/12 10:43:13;;;;;;;3.03;1.80;;;;;;;29.13;79.85;96480.06;5032844;28;20228;-72
2023/08/12 10:45:44;;;;;;;3.05;1.80;;;;;;;29.39;84.38;96471.41;5036388;28;20217;-72
2023/08/12 10:48:17;;;;;;;2.80;1.77;;;;;;;29.56;75.78;96473.66;5033362;28;20217;-73
2023/08/12 10:50:45;;;;;;;3.47;2.10;;;;;;;29.77;76.80;96471.22;5037047;28;20636;-72
2023/08/12 10:53:29;;;;;;;1.88;1.50;;;;;;;30.07;73.92;96462.69;5036278;28;20221;-71
2023/08/12 10:55:57;;;;;;;2.92;1.48;;;;;;;29.67;74.50;96456.94;5036347;28;20203;-72
2023/08/12 10:58:34;;;;;;;2.33;1.70;;;;;;;29.74;74.57;96441.91;5035079;28;20204;-72
2023/08/12 11:01:01;;;;;;;1.83;1.25;;;;;;;29.80;71.95;96442.66;5035962;28;20593;-72
2023/08/12 11:03:33;;;;;;;1.50;1.30;;;;;;;30.17;72.44;96435.34;5036167;28;20236;-72
2023/08/12 11:06:00;;;;;;;3.05;1.73;;;;;;;30.46;70.52;96441.44;5035670;28;20362;-72
2023/08/12 11:08:29;;;;;;;2.80;1.55;;;;;;;30.59;74.02;96435.25;5035322;28;20193;-72
2023/08/12 11:10:57;;;;;;;2.95;1.60;;;;;;;30.70;74.10;96434.78;5035021;28;20240;-72
2023/08/12 11:13:27;;;;;;;2.45;1.60;;;;;;;30.62;71.01;96423.78;5027713;28;20228;-73
2023/08/12 11:16:07;;;;;;;2.40;1.33;;;;;;;31.45;69.35;96417.06;5030917;28;20198;-73
2023/08/12 11:18:34;;;;;;;2.72;1.52;;;;;;;30.86;71.02;96425.25;5033667;28;20228;-72
2023/08/12 11:21:01;;;;;;;1.75;1.30;;;;;;;30.67;68.37;96424.50;5033721;28;20208;-73
2023/08/12 11:23:30;;;;;;;2.28;1.23;;;;;;;30.79;68.36;96413.94;5033940;28;20233;-74
2023/08/12 11:25:56;;;;;;;2.35;1.02;;;;;;;30.95;70.77;96415.31;5034332;28;20232;-73
2023/08/12 11:28:25;;;;;;;1.20;1.10;;;;;;;31.48;69.74;96411.88;5036356;28;20352;-73
2023/08/12 11:30:51;;;;;;;1.92;1.25;;;;;;;31.34;66.60;96396.59;5035319;28;20292;-73